Time;durP1;ratioP1;P1;durP2;ratioP2;P2;SDS_P1;SDS_P2;PMS_P1;PMS_P2;Temp;Humidity;BMP_temperature;BMP_pressure;BME280_temperature;BME280_humidity;BME280_pressure;Samples;Min_cycle;Max_cycle;Signal;HPM_P1;HPM_P2
2022/06/16 00:00:17;;;;;;;11.98;3.10;;;;;;;13.25;74.76;99307.91;5027111;28;20080;-76
2022/06/16 00:02:48;;;;;;;11.88;2.83;;;;;;;13.24;74.64;99311.78;5025989;28;20053;-75
2022/06/16 00:05:18;;;;;;;14.63;2.97;;;;;;;13.23;74.40;99305.50;5026483;28;20622;-69
2022/06/16 00:07:44;;;;;;;12.93;3.30;;;;;;;13.23;74.81;99316.47;5024251;28;20065;-69
2022/06/16 00:10:11;;;;;;;12.30;3.22;;;;;;;13.21;74.63;99315.97;5023182;28;20457;-69
2022/06/16 00:12:38;;;;;;;12.00;4.38;;;;;;;13.20;74.84;99319.84;5038724;28;20056;-76
2022/06/16 00:15:06;;;;;;;14.32;3.35;;;;;;;13.18;74.94;99316.53;5045070;28;20137;-76
2022/06/16 00:17:34;;;;;;;14.10;3.17;;;;;;;13.16;74.63;99316.03;5042574;28;20094;-76
2022/06/16 00:20:04;;;;;;;15.27;3.00;;;;;;;13.16;74.69;99311.38;5045869;28;20140;-76
2022/06/16 00:22:31;;;;;;;12.55;3.15;;;;;;;13.16;74.73;99314.13;5028139;28;20566;-77
2022/06/16 00:24:57;;;;;;;11.82;3.35;;;;;;;13.21;74.36;99315.13;5042798;28;20295;-76
2022/06/16 00:27:23;;;;;;;11.82;3.15;;;;;;;13.25;74.62;99313.41;5041123;28;20088;-75
2022/06/16 00:29:50;;;;;;;10.32;3.67;;;;;;;13.30;74.31;99316.06;5044498;28;20622;-76
2022/06/16 00:32:16;;;;;;;13.27;4.10;;;;;;;13.37;74.12;99321.16;5044189;28;20041;-76
2022/06/16 00:34:43;;;;;;;9.50;3.17;;;;;;;13.46;73.63;99319.34;5026963;28;20048;-69
2022/06/16 00:37:09;;;;;;;;;;;;;;;13.53;73.67;99316.19;5025622;28;20147;-68
2022/06/16 00:39:35;;;;;;;12.13;3.65;;;;;;;13.58;73.08;99318.81;5025535;28;20332;-69
2022/06/16 00:42:09;;;;;;;16.20;3.50;;;;;;;13.63;72.83;99318.72;5024355;28;20065;-70
2022/06/16 00:44:41;;;;;;;9.82;3.00;;;;;;;13.66;72.66;99318.09;5027041;28;20104;-69
2022/06/16 00:47:07;;;;;;;9.18;3.13;;;;;;;13.72;72.48;99322.34;5023426;28;20041;-68
2022/06/16 00:49:36;;;;;;;9.10;3.10;;;;;;;13.75;72.23;99313.53;5025153;28;20053;-78
2022/06/16 00:52:10;;;;;;;13.15;3.15;;;;;;;13.79;71.80;99318.41;4990339;28;20045;-75
2022/06/16 00:54:41;;;;;;;15.50;3.13;;;;;;;13.81;71.93;99316.94;5013263;28;20052;-76
2022/06/16 00:57:13;;;;;;;12.57;3.60;;;;;;;13.82;71.11;99312.28;5023276;28;20052;-75
2022/06/16 00:59:41;;;;;;;11.85;3.58;;;;;;;13.74;71.27;99302.81;5011273;28;20042;-76
2022/06/16 01:02:08;;;;;;;16.38;3.20;;;;;;;13.64;71.09;99301.13;5024854;28;20045;-76
2022/06/16 01:04:53;;;;;;;13.90;3.45;;;;;;;13.74;71.55;99320.13;5029726;28;20049;-76
2022/06/16 01:07:24;;;;;;;14.63;3.22;;;;;;;13.67;71.56;99327.97;5042997;28;20048;-75
2022/06/16 01:09:51;;;;;;;9.98;3.00;;;;;;;13.60;71.54;99316.59;5043483;28;20431;-77
2022/06/16 01:15:36;;;;;;;15.45;2.95;;;;;;;13.49;71.35;99324.22;5037345;28;20429;-76
2022/06/16 01:18:14;;;;;;;15.30;2.97;;;;;;;13.44;71.58;99324.31;5013856;28;20414;-77
2022/06/16 01:20:51;;;;;;;12.63;3.20;;;;;;;13.43;71.32;99329.03;5021393;28;20049;-76
2022/06/16 01:23:50;;;;;;;14.73;3.33;;;;;;;13.27;71.67;99313.94;5008194;28;20045;-76
2022/06/16 01:26:52;;;;;;;13.27;3.10;;;;;;;13.40;71.87;99334.25;5009112;28;20098;-75
2022/06/16 01:29:25;;;;;;;11.13;2.70;;;;;;;13.40;71.45;99337.81;5005488;28;20052;-76
2022/06/16 01:31:59;;;;;;;11.48;3.08;;;;;;;13.42;71.08;99343.00;4992012;28;20045;-74
2022/06/16 01:34:37;;;;;;;15.68;3.20;;;;;;;13.41;71.06;99347.66;5020851;28;20167;-76
2022/06/16 01:37:12;;;;;;;14.18;3.63;;;;;;;13.42;71.10;99348.50;5018987;28;20037;-77
2022/06/16 01:39:44;;;;;;;17.80;3.35;;;;;;;13.44;70.41;99349.88;5045462;28;20499;-76
2022/06/16 01:42:17;;;;;;;10.70;2.55;;;;;;;13.40;70.52;99343.31;5044225;28;20052;-78
2022/06/16 01:44:53;;;;;;;13.65;2.80;;;;;;;13.45;70.27;99340.50;5044036;28;20497;-75
2022/06/16 01:47:21;;;;;;;9.98;3.00;;;;;;;13.46;70.20;99346.78;5029162;28;20041;-75
2022/06/16 01:49:54;;;;;;;10.80;3.08;;;;;;;13.38;70.28;99340.06;5046366;28;20144;-69
2022/06/16 01:52:25;;;;;;;17.10;3.53;;;;;;;13.57;70.45;99353.72;5043625;28;20053;-70
2022/06/16 01:54:55;;;;;;;13.38;3.30;;;;;;;13.72;70.40;99363.56;5042139;28;20041;-69
2022/06/16 01:57:25;;;;;;;13.75;3.53;;;;;;;13.86;70.21;99365.50;5042900;28;20044;-70
2022/06/16 01:59:58;;;;;;;12.15;3.40;;;;;;;13.91;69.92;99354.41;5026023;28;20047;-69
2022/06/16 02:02:28;;;;;;;8.40;2.95;;;;;;;13.99;69.93;99372.91;5042752;28;20086;-69
2022/06/16 02:05:00;;;;;;;10.50;3.60;;;;;;;14.10;69.37;99367.19;5043325;28;20041;-69
2022/06/16 02:07:32;;;;;;;9.52;3.33;;;;;;;14.17;69.05;99360.13;5024472;28;20064;-71
2022/06/16 02:10:09;;;;;;;10.02;3.17;;;;;;;14.22;68.72;99372.13;5023619;28;20042;-76
2022/06/16 02:12:55;;;;;;;17.08;3.47;;;;;;;14.21;68.15;99371.34;5022500;28;20053;-76
2022/06/16 02:15:38;;;;;;;14.77;3.00;;;;;;;14.17;68.24;99371.13;5038566;28;20053;-77
2022/06/16 02:18:08;;;;;;;12.07;3.35;;;;;;;14.10;68.44;99373.47;5024881;28;20056;-76
2022/06/16 02:20:43;;;;;;;12.27;3.30;;;;;;;13.95;68.67;99373.81;5028383;28;20049;-77
2022/06/16 02:23:09;;;;;;;12.30;3.20;;;;;;;13.94;69.14;99385.94;5022630;28;20435;-76
2022/06/16 02:25:36;;;;;;;11.38;3.40;;;;;;;13.85;69.21;99386.66;5005023;28;20055;-76
2022/06/16 02:28:02;;;;;;;9.10;3.13;;;;;;;13.80;69.39;99388.72;5021903;28;20617;-75
2022/06/16 02:30:38;;;;;;;13.18;3.60;;;;;;;13.73;69.44;99386.38;5031719;28;20053;-76
2022/06/16 02:33:12;;;;;;;12.70;3.45;;;;;;;13.80;69.52;99394.19;5043245;28;20095;-76
2022/06/16 02:35:48;;;;;;;13.82;3.50;;;;;;;13.88;68.98;99408.03;5047602;28;20508;-75
2022/06/16 02:38:30;;;;;;;14.00;3.15;;;;;;;13.95;68.77;99407.63;5049470;28;20053;-76
2022/06/16 02:41:10;;;;;;;12.43;3.30;;;;;;;14.00;68.80;99407.50;5043540;28;20137;-76
2022/06/16 02:44:00;;;;;;;10.10;2.85;;;;;;;14.08;68.08;99405.97;4992556;28;20131;-76
2022/06/16 02:46:46;;;;;;;8.05;2.78;;;;;;;14.17;67.34;99406.06;5030556;28;20130;-76
2022/06/16 02:49:25;;;;;;;13.40;3.30;;;;;;;14.18;66.72;99400.25;5028629;28;20049;-76
2022/06/16 02:52:01;;;;;;;12.85;2.70;;;;;;;14.31;66.16;99415.09;5027204;28;20514;-76
2022/06/16 02:54:33;;;;;;;13.63;2.70;;;;;;;14.28;65.96;99393.72;5011036;28;20059;-75
2022/06/16 02:57:07;;;;;;;12.70;2.90;;;;;;;14.31;65.76;99393.09;5030223;28;20052;-76
2022/06/16 02:59:38;;;;;;;21.88;3.47;;;;;;;14.42;65.49;99403.88;5030499;28;20041;-77
2022/06/16 03:02:09;;;;;;;13.80;2.80;;;;;;;14.45;65.12;99390.31;5030953;28;20049;-76
2022/06/16 03:04:40;;;;;;;9.65;2.75;;;;;;;14.56;64.29;99396.38;5048191;28;20057;-69
2022/06/16 03:07:09;;;;;;;12.27;2.78;;;;;;;14.54;64.26;99395.88;5027841;28;20492;-70
2022/06/16 03:09:37;;;;;;;12.77;3.17;;;;;;;14.60;64.18;99391.06;5013925;28;20044;-70
2022/06/16 03:12:05;;;;;;;7.47;2.47;;;;;;;14.60;64.18;99397.38;5048253;28;20508;-77
2022/06/16 03:14:31;;;;;;;11.57;2.72;;;;;;;14.61;64.15;99398.19;5026912;28;20051;-68
2022/06/16 03:16:58;;;;;;;7.38;2.35;;;;;;;14.57;64.20;99400.75;5041517;28;20046;-68
2022/06/16 03:19:26;;;;;;;10.27;2.60;;;;;;;14.53;64.34;99393.44;5025420;28;20100;-69
2022/06/16 03:21:51;;;;;;;;;;;;;;;14.56;64.53;99404.63;5027252;28;20316;-69
2022/06/16 03:24:17;;;;;;;23.02;2.97;;;;;;;14.64;64.10;99396.75;5025469;28;19975;-68
2022/06/16 03:26:46;;;;;;;7.30;2.80;;;;;;;14.76;64.20;99394.28;5038607;28;20091;-68
2022/06/16 03:29:12;;;;;;;13.70;2.60;;;;;;;14.79;63.90;99393.66;5046089;28;20060;-70
2022/06/16 03:31:39;;;;;;;9.02;2.75;;;;;;;14.96;63.54;99398.47;5011936;28;20369;-69
2022/06/16 03:34:06;;;;;;;13.43;2.80;;;;;;;15.02;63.34;99407.41;5008557;28;20061;-69
2022/06/16 03:36:37;;;;;;;16.52;3.25;;;;;;;15.05;63.58;99394.94;5026691;28;20049;-68
2022/06/16 03:39:05;;;;;;;20.90;2.80;;;;;;;15.03;63.61;99398.03;5047406;28;20055;-71
2022/06/16 03:41:32;;;;;;;15.95;2.95;;;;;;;14.73;63.18;99359.94;5047833;28;20136;-70
2022/06/16 03:44:02;;;;;;;7.22;2.63;;;;;;;15.01;63.50;99403.03;5046048;28;20052;-69
2022/06/16 03:46:28;;;;;;;11.63;2.50;;;;;;;15.05;63.13;99406.78;5042547;28;20137;-69
2022/06/16 03:49:07;;;;;;;10.43;2.85;;;;;;;15.08;63.48;99403.41;5045729;28;20414;-70
2022/06/16 03:51:54;;;;;;;13.13;2.53;;;;;;;15.12;62.95;99409.09;5043339;28;20170;-69
2022/06/16 03:54:25;;;;;;;12.65;2.58;;;;;;;15.13;63.02;99410.72;5044707;28;20424;-70
2022/06/16 03:56:58;;;;;;;14.57;3.10;;;;;;;15.16;63.01;99399.91;5011713;28;20135;-70
2022/06/16 03:59:25;;;;;;;7.93;2.58;;;;;;;15.17;62.72;99404.28;5024800;28;20073;-77
2022/06/16 04:01:56;;;;;;;9.57;3.00;;;;;;;15.20;62.86;99413.81;4992114;28;20041;-77
2022/06/16 04:04:26;;;;;;;8.55;2.97;;;;;;;15.25;62.81;99412.88;5012172;28;20591;-70
2022/06/16 04:06:53;;;;;;;13.93;2.83;;;;;;;15.32;62.67;99416.00;5028322;28;20206;-69
2022/06/16 04:09:25;;;;;;;11.48;2.97;;;;;;;15.37;62.25;99415.88;5023551;28;20420;-70
2022/06/16 04:11:52;;;;;;;8.52;2.50;;;;;;;15.40;61.80;99417.97;5023824;28;20170;-70
2022/06/16 04:14:18;;;;;;;14.35;3.60;;;;;;;15.43;62.01;99416.53;5026362;28;20050;-71
2022/06/16 04:16:53;;;;;;;19.52;3.22;;;;;;;15.45;62.34;99417.03;5009883;28;20044;-68
2022/06/16 04:19:28;;;;;;;13.15;2.80;;;;;;;15.51;62.10;99421.28;5025404;28;20144;-76
2022/06/16 04:21:56;;;;;;;10.50;2.80;;;;;;;15.58;62.02;99418.88;4997676;28;20053;-77
2022/06/16 04:24:33;;;;;;;18.10;3.30;;;;;;;15.68;61.32;99420.53;5026038;28;20103;-76
2022/06/16 04:27:00;;;;;;;12.93;3.15;;;;;;;15.72;61.52;99418.75;5007054;28;20425;-75
2022/06/16 04:29:27;;;;;;;10.25;2.75;;;;;;;15.78;61.55;99419.44;5029107;28;20512;-76
2022/06/16 04:31:55;;;;;;;12.43;3.22;;;;;;;15.82;61.03;99420.41;5043937;28;20167;-75
2022/06/16 04:34:28;;;;;;;12.98;2.97;;;;;;;15.83;61.17;99424.00;5041184;28;20593;-76
2022/06/16 04:36:56;;;;;;;23.53;3.80;;;;;;;15.83;60.87;99413.78;5044415;28;20049;-77
2022/06/16 04:39:24;;;;;;;11.90;2.92;;;;;;;15.85;61.25;99421.72;5044190;28;20056;-76
2022/06/16 04:41:52;;;;;;;12.88;3.00;;;;;;;15.88;61.37;99426.59;5043242;28;20044;-77
2022/06/16 04:44:20;;;;;;;12.98;3.13;;;;;;;15.94;61.20;99419.03;5045502;28;20454;-76
2022/06/16 04:46:46;;;;;;;12.75;3.22;;;;;;;15.94;60.84;99405.25;5037146;28;20041;-76
2022/06/16 04:49:15;;;;;;;11.55;3.15;;;;;;;16.01;60.90;99411.91;5028132;28;20053;-75
2022/06/16 04:51:45;;;;;;;11.95;2.83;;;;;;;16.12;60.68;99425.41;5026680;28;20049;-76
2022/06/16 04:54:14;;;;;;;10.85;2.83;;;;;;;16.20;60.41;99426.56;5032397;28;20045;-77
2022/06/16 04:56:48;;;;;;;11.98;2.85;;;;;;;16.20;60.03;99427.34;5035349;28;20053;-76
2022/06/16 04:59:42;;;;;;;11.73;3.10;;;;;;;16.21;59.66;99431.72;5019388;28;20071;-70
2022/06/16 05:02:31;;;;;;;11.98;2.80;;;;;;;16.26;59.46;99431.59;5034929;28;20117;-75
2022/06/16 05:05:17;;;;;;;15.43;2.97;;;;;;;16.24;59.18;99417.31;5036164;28;20082;-76
2022/06/16 05:07:55;;;;;;;20.83;2.72;;;;;;;16.33;59.47;99442.16;5035056;28;20311;-70
2022/06/16 05:10:46;;;;;;;13.35;3.17;;;;;;;16.38;59.44;99436.47;5047788;28;20052;-70
2022/06/16 05:13:32;;;;;;;21.95;3.72;;;;;;;16.48;58.38;99431.78;5021908;28;20516;-70
2022/06/16 05:16:21;;;;;;;15.65;3.25;;;;;;;16.58;58.55;99431.44;5024721;28;20049;-69
2022/06/16 05:18:55;;;;;;;16.55;3.13;;;;;;;16.69;58.36;99437.44;5009903;28;20052;-69
2022/06/16 05:21:47;;;;;;;17.35;5.80;;;;;;;16.77;57.99;99433.06;5023469;28;20063;-69
2022/06/16 05:24:36;;;;;;;13.48;3.40;;;;;;;16.73;57.91;99422.69;5022617;28;20049;-68
2022/06/16 05:27:23;;;;;;;22.75;3.35;;;;;;;16.84;57.24;99436.16;5021506;28;20513;-69
2022/06/16 05:30:00;;;;;;;25.38;3.05;;;;;;;16.88;57.12;99431.59;5022688;28;20575;-77
2022/06/16 05:32:41;;;;;;;9.88;3.00;;;;;;;16.98;56.93;99430.44;5017657;28;20429;-77
2022/06/16 05:35:27;;;;;;;12.05;3.17;;;;;;;16.96;56.99;99414.22;5026108;28;20126;-70
2022/06/16 05:38:06;;;;;;;13.07;3.03;;;;;;;17.09;56.77;99426.25;5022970;28;20531;-70
2022/06/16 05:40:45;;;;;;;12.25;3.22;;;;;;;17.12;56.59;99427.56;5029223;28;20044;-69
2022/06/16 05:43:26;;;;;;;22.33;3.17;;;;;;;17.20;56.25;99425.91;5026555;28;20079;-70
2022/06/16 05:46:15;;;;;;;12.90;3.00;;;;;;;17.25;55.86;99429.31;5029853;28;20037;-70
2022/06/16 05:48:52;;;;;;;21.60;3.72;;;;;;;17.31;56.17;99424.41;5025739;28;20051;-69
2022/06/16 05:51:19;;;;;;;15.13;3.13;;;;;;;17.37;55.98;99428.63;5037227;28;20049;-69
2022/06/16 05:54:00;;;;;;;13.18;3.22;;;;;;;17.37;55.54;99425.84;5011889;28;20052;-69
2022/06/16 05:56:31;;;;;;;22.30;3.45;;;;;;;17.39;55.36;99425.50;5019444;28;20049;-78
2022/06/16 05:59:00;;;;;;;12.45;3.08;;;;;;;17.40;55.55;99430.72;5009113;28;20144;-75
2022/06/16 06:01:29;;;;;;;16.95;3.22;;;;;;;17.48;55.52;99428.25;5017094;28;20049;-75
2022/06/16 06:04:07;;;;;;;11.32;2.88;;;;;;;17.53;55.17;99428.09;5017122;28;20135;-76
2022/06/16 06:06:36;;;;;;;13.40;3.40;;;;;;;17.62;55.19;99417.78;4997072;28;20057;-69
2022/06/16 06:17:22;;;;;;;10.43;3.08;;;;;;;17.61;55.11;99430.00;5023858;28;20045;-70
2022/06/16 06:19:54;;;;;;;11.23;2.95;;;;;;;17.65;54.51;99427.38;5028388;28;20064;-69
2022/06/16 06:22:25;;;;;;;13.63;3.17;;;;;;;17.74;53.81;99425.41;5019509;28;20180;-69
2022/06/16 06:24:58;;;;;;;;;;;;;;;17.92;53.54;99422.53;5005536;28;20067;-69
2022/06/16 06:27:33;;;;;;;15.90;3.22;;;;;;;18.13;52.81;99419.84;5010091;28;20038;-69
2022/06/16 06:30:06;;;;;;;15.02;3.70;;;;;;;18.30;52.13;99420.88;4990061;28;20519;-69
2022/06/16 06:32:33;;;;;;;13.13;3.20;;;;;;;18.32;52.12;99422.16;5024143;28;20068;-76
2022/06/16 06:35:00;;;;;;;10.55;3.13;;;;;;;18.50;52.17;99435.88;5036750;28;20068;-76
2022/06/16 06:37:27;;;;;;;10.15;3.00;;;;;;;18.70;49.42;99429.53;5018511;28;20073;-75
2022/06/16 06:39:53;;;;;;;18.27;2.65;;;;;;;19.00;49.49;99417.53;5051151;28;20044;-75
2022/06/16 06:42:20;;;;;;;21.37;2.80;;;;;;;19.17;49.36;99426.81;5042456;28;20037;-75
2022/06/16 06:44:47;;;;;;;22.45;3.20;;;;;;;19.12;48.71;99422.31;5015749;28;20318;-76
2022/06/16 06:47:18;;;;;;;20.20;2.90;;;;;;;19.07;47.71;99423.34;4993259;28;20080;-69
2022/06/16 06:49:45;;;;;;;12.35;2.90;;;;;;;19.31;47.21;99415.44;5041973;28;20071;-68
2022/06/16 06:52:12;;;;;;;11.13;2.90;;;;;;;19.63;45.60;99407.41;5040388;28;20044;-69
2022/06/16 06:54:39;;;;;;;15.57;2.83;;;;;;;19.74;44.61;99422.41;5035523;28;20053;-69
2022/06/16 06:57:06;;;;;;;20.40;2.90;;;;;;;19.98;43.82;99404.19;5033807;28;20076;-68
2022/06/16 06:59:32;;;;;;;28.27;2.90;;;;;;;20.33;43.68;99416.75;5023609;28;20520;-69
2022/06/16 07:01:58;;;;;;;18.80;2.95;;;;;;;20.20;43.87;99415.94;5034106;28;20068;-69
2022/06/16 07:04:26;;;;;;;14.57;2.60;;;;;;;19.80;44.58;99423.81;5025417;28;20053;-69
2022/06/16 07:06:52;;;;;;;13.13;3.00;;;;;;;19.56;43.37;99419.84;5022100;28;20499;-69
2022/06/16 07:09:19;;;;;;;12.73;2.42;;;;;;;19.61;42.73;99420.81;5026243;28;20048;-76
2022/06/16 07:11:45;;;;;;;9.50;2.37;;;;;;;20.01;42.03;99420.13;5023702;28;20045;-77
2022/06/16 07:14:13;;;;;;;20.80;2.85;;;;;;;20.36;41.84;99414.06;5035328;28;20807;-69
2022/06/16 07:16:40;;;;;;;12.32;2.67;;;;;;;20.26;41.34;99381.25;5001367;28;20059;-70
2022/06/16 07:19:06;;;;;;;11.75;2.45;;;;;;;20.75;42.00;99419.16;5040378;28;20508;-77
2022/06/16 07:21:34;;;;;;;13.65;2.38;;;;;;;20.59;41.47;99412.72;5042426;28;20052;-77
2022/06/16 07:24:00;;;;;;;11.07;2.40;;;;;;;20.41;41.82;99421.34;5040141;28;20041;-70
2022/06/16 07:26:26;;;;;;;10.15;2.58;;;;;;;20.53;40.90;99415.75;5019452;28;20055;-70
2022/06/16 07:28:52;;;;;;;18.20;2.65;;;;;;;20.30;41.37;99398.81;5041841;28;20281;-69
2022/06/16 07:31:19;;;;;;;16.73;2.45;;;;;;;20.14;41.68;99422.91;5037193;28;20054;-69
2022/06/16 07:33:45;;;;;;;15.32;3.15;;;;;;;19.89;43.02;99411.78;5044321;28;20524;-70
2022/06/16 07:36:12;;;;;;;15.82;2.75;;;;;;;19.95;42.92;99407.66;5033863;28;20072;-77
2022/06/16 07:38:39;;;;;;;14.50;2.58;;;;;;;20.20;42.16;99408.44;5013141;28;20045;-76
2022/06/16 07:43:50;;;;;;;12.88;2.53;;;;;;;20.04;43.30;99402.00;5038298;28;20523;-69
2022/06/16 07:46:17;;;;;;;14.25;2.25;;;;;;;20.26;41.58;99395.13;5057878;28;20164;-69
2022/06/16 07:48:43;;;;;;;13.67;2.63;;;;;;;20.81;40.60;99397.50;5043184;28;20048;-70
2022/06/16 07:51:09;;;;;;;6.63;2.22;;;;;;;21.33;38.41;99395.72;5032490;28;20046;-69
2022/06/16 07:53:35;;;;;;;5.90;2.00;;;;;;;21.68;37.62;99392.25;5048197;28;20051;-68
2022/06/16 07:56:03;;;;;;;14.57;2.70;;;;;;;22.12;37.09;99387.69;5048593;28;20049;-70
2022/06/16 07:58:31;;;;;;;12.98;2.50;;;;;;;22.54;36.02;99391.78;5022779;28;20152;-69
2022/06/16 08:00:59;;;;;;;11.02;2.45;;;;;;;22.98;34.87;99389.88;5036890;28;20036;-69
2022/06/16 08:03:29;;;;;;;17.40;2.97;;;;;;;22.74;35.66;99383.47;5031590;28;20079;-69
2022/06/16 08:05:56;;;;;;;15.00;2.40;;;;;;;22.08;36.67;99378.47;5036604;28;20053;-69
2022/06/16 08:08:25;;;;;;;14.40;2.42;;;;;;;21.35;38.06;99384.25;5035994;28;20052;-76
2022/06/16 08:10:53;;;;;;;16.98;2.60;;;;;;;20.91;38.53;99398.97;5040484;28;20166;-76
2022/06/16 08:13:23;;;;;;;14.45;2.50;;;;;;;20.57;39.28;99385.31;4994523;28;20041;-69
2022/06/16 08:15:50;;;;;;;37.25;3.53;;;;;;;20.33;40.16;99395.34;5037431;28;20087;-70
2022/06/16 08:18:19;;;;;;;43.33;3.97;;;;;;;20.11;40.90;99391.09;5044521;28;20068;-68
2022/06/16 08:20:45;;;;;;;28.42;2.92;;;;;;;19.91;43.46;99401.97;5042288;28;20071;-69
2022/06/16 08:23:12;;;;;;;42.00;3.47;;;;;;;19.72;44.62;99398.97;5040907;28;20095;-70
2022/06/16 08:25:42;;;;;;;53.65;4.15;;;;;;;19.44;44.08;99403.22;5036741;28;20049;-69
2022/06/16 08:28:10;;;;;;;63.28;3.58;;;;;;;19.16;45.00;99409.41;5035456;28;20556;-69
2022/06/16 08:30:41;;;;;;;35.53;3.63;;;;;;;19.04;42.26;99401.06;5044769;28;20049;-69
2022/06/16 08:33:09;;;;;;;53.00;3.05;;;;;;;19.15;41.57;99399.47;5043168;28;20045;-69
2022/06/16 08:35:35;;;;;;;24.90;2.42;;;;;;;19.43;40.82;99401.59;5044210;28;20076;-69
2022/06/16 08:38:02;;;;;;;17.80;2.17;;;;;;;20.19;39.70;99398.50;5039868;28;20538;-76
2022/06/16 08:40:29;;;;;;;11.40;2.75;;;;;;;21.65;36.79;99394.94;5042604;28;20303;-77
2022/06/16 08:43:01;;;;;;;16.52;2.25;;;;;;;23.18;34.66;99399.00;5034899;28;20056;-76
2022/06/16 08:45:32;;;;;;;18.30;2.42;;;;;;;23.74;32.58;99399.59;5035141;28;20056;-76
2022/06/16 08:48:20;;;;;;;19.83;2.13;;;;;;;23.07;33.51;99385.66;5044435;28;20045;-75
2022/06/16 08:50:51;;;;;;;19.02;2.65;;;;;;;22.77;34.14;99396.66;5035431;28;20095;-68
2022/06/16 08:53:41;;;;;;;15.75;2.80;;;;;;;22.20;35.22;99392.25;5035012;28;20057;-76
2022/06/16 08:56:12;;;;;;;15.55;2.10;;;;;;;22.48;35.41;99388.53;5036374;28;20049;-76
2022/06/16 08:58:45;;;;;;;14.38;2.85;;;;;;;22.94;35.20;99390.59;5060521;28;20590;-76
2022/06/16 09:01:15;;;;;;;24.77;2.60;;;;;;;23.20;35.78;99400.25;5027099;28;20044;-76
2022/06/16 09:03:47;;;;;;;21.70;3.00;;;;;;;22.43;38.29;99399.09;5053916;28;20724;-76
2022/06/16 09:06:26;;;;;;;15.38;2.42;;;;;;;21.47;40.03;99408.38;5034465;28;20045;-70
2022/06/16 09:09:01;;;;;;;33.78;2.92;;;;;;;20.64;41.68;99407.72;5041671;28;20083;-70
2022/06/16 09:11:35;;;;;;;20.67;2.55;;;;;;;20.21;42.55;99407.28;5035661;28;20044;-69
2022/06/16 09:17:25;;;;;;;33.83;3.28;;;;;;;20.48;42.29;99412.41;5032611;28;20048;-75
2022/06/16 09:20:07;;;;;;;21.50;2.35;;;;;;;21.64;39.05;99405.25;5029139;28;20163;-75
2022/06/16 09:22:59;;;;;;;10.57;2.45;;;;;;;22.83;35.75;99405.50;5044828;28;20131;-75
2022/06/16 09:25:38;;;;;;;10.48;2.13;;;;;;;24.00;32.87;99415.53;5029788;28;20037;-70
2022/06/16 09:28:13;;;;;;;20.52;2.72;;;;;;;24.38;32.44;99401.75;4689901;28;10000470;-69
2022/06/16 09:30:42;;;;;;;8.50;2.22;;;;;;;24.70;31.23;99411.69;5000612;28;20057;-69
2022/06/16 09:33:15;;;;;;;8.82;2.33;;;;;;;24.86;30.90;99403.16;5037906;28;20072;-68
2022/06/16 09:35:47;;;;;;;16.55;2.38;;;;;;;25.58;30.09;99401.06;5032420;28;20114;-75
2022/06/16 09:38:18;;;;;;;16.65;2.33;;;;;;;25.80;30.07;99398.44;5020050;28;20289;-76
2022/06/16 09:40:50;;;;;;;19.70;2.90;;;;;;;25.66;29.57;99395.53;5035254;28;20052;-75
2022/06/16 09:43:22;;;;;;;9.32;2.10;;;;;;;25.67;29.68;99392.34;5028650;28;20052;-75
2022/06/16 09:45:54;;;;;;;33.17;2.90;;;;;;;26.21;29.12;99403.16;5016228;28;20067;-75
2022/06/16 09:48:27;;;;;;;10.63;2.40;;;;;;;26.55;28.01;99397.31;5031620;28;20048;-75
2022/06/16 09:51:01;;;;;;;26.67;3.08;;;;;;;26.50;28.31;99389.28;5029404;28;20052;-75
2022/06/16 09:53:36;;;;;;;12.07;2.50;;;;;;;26.39;28.14;99389.25;5033512;28;20215;-75
2022/06/16 09:56:05;;;;;;;6.35;2.05;;;;;;;25.82;27.19;99387.66;5033425;28;20041;-74
2022/06/16 09:58:37;;;;;;;11.40;2.58;;;;;;;25.41;28.25;99391.31;5039066;28;20064;-68
2022/06/16 10:01:08;;;;;;;16.08;2.58;;;;;;;26.13;28.10;99381.84;5058515;28;20045;-69
2022/06/16 10:03:39;;;;;;;21.65;2.90;;;;;;;26.84;26.73;99389.00;5042531;28;20376;-69
2022/06/16 10:06:23;;;;;;;18.23;2.50;;;;;;;27.64;25.25;99393.97;5037405;28;20575;-70
2022/06/16 10:08:58;;;;;;;24.83;2.75;;;;;;;27.68;25.46;99392.75;5029698;28;20353;-70
2022/06/16 10:11:43;;;;;;;13.05;2.50;;;;;;;27.92;24.84;99381.09;5012488;28;20045;-68
2022/06/16 10:14:17;;;;;;;18.45;2.45;;;;;;;28.30;24.41;99381.44;5033465;28;20052;-68
2022/06/16 10:16:51;;;;;;;29.40;2.42;;;;;;;29.04;23.11;99382.75;5045938;28;20040;-70
2022/06/16 10:19:18;;;;;;;12.82;2.78;;;;;;;29.64;22.92;99372.25;5048784;28;20147;-71
2022/06/16 10:21:46;;;;;;;14.55;2.20;;;;;;;30.08;22.32;99383.13;5030980;28;20098;-76
2022/06/16 10:24:15;;;;;;;7.07;2.28;;;;;;;30.18;21.46;99378.59;5036951;28;20041;-76
2022/06/16 10:26:42;;;;;;;12.02;2.55;;;;;;;30.12;21.94;99387.47;5034678;28;20057;-76
2022/06/16 10:29:24;;;;;;;7.73;2.50;;;;;;;29.56;21.75;99396.03;5026324;28;20044;-77
2022/06/16 10:31:51;;;;;;;8.38;2.22;;;;;;;28.37;23.00;99384.22;5016449;28;20297;-69
2022/06/16 10:34:26;;;;;;;11.15;2.10;;;;;;;27.83;23.64;99357.06;5034682;28;20079;-69
2022/06/16 10:37:00;;;;;;;11.68;2.38;;;;;;;27.63;23.81;99379.13;5044397;28;20045;-69
2022/06/16 10:39:35;;;;;;;7.38;2.08;;;;;;;27.77;24.18;99372.69;5049801;28;20500;-75
2022/06/16 10:42:11;;;;;;;19.45;2.60;;;;;;;28.16;23.61;99369.03;5045139;28;20575;-76
2022/06/16 10:44:38;;;;;;;9.25;2.15;;;;;;;28.30;23.13;99376.63;5059302;28;20080;-75
2022/06/16 10:47:07;;;;;;;11.20;2.38;;;;;;;28.14;23.48;99385.47;5022580;28;20041;-69
2022/06/16 10:49:35;;;;;;;12.23;2.30;;;;;;;28.07;23.93;99374.25;5025762;28;20045;-75
2022/06/16 10:52:06;;;;;;;14.90;2.45;;;;;;;28.99;22.89;99370.69;5035284;28;20119;-75
2022/06/16 10:54:35;;;;;;;11.57;2.30;;;;;;;29.80;22.35;99368.88;5042847;28;20529;-75
2022/06/16 10:57:07;;;;;;;12.18;2.30;;;;;;;29.13;22.61;99369.00;5046039;28;20053;-75
2022/06/16 10:59:40;;;;;;;27.95;3.10;;;;;;;28.43;23.90;99373.38;5039503;28;20148;-76
2022/06/16 11:02:17;;;;;;;9.40;2.72;;;;;;;29.07;23.56;99360.19;5036873;28;20049;-71
2022/06/16 11:04:43;;;;;;;;;;;;;;;29.76;22.61;99364.50;5037682;28;20407;-71
2022/06/16 11:07:16;;;;;;;19.88;2.50;;;;;;;30.17;22.15;99362.91;5039885;28;19934;-70
2022/06/16 11:09:45;;;;;;;14.45;2.50;;;;;;;28.24;23.99;99364.19;5035649;28;20057;-71
2022/06/16 11:12:16;;;;;;;13.38;2.33;;;;;;;26.32;25.68;99400.41;5044333;28;20147;-72
2022/06/16 11:14:45;;;;;;;6.30;1.80;;;;;;;24.53;27.90;99380.38;5044473;28;20045;-71
2022/06/16 11:17:19;;;;;;;10.00;1.95;;;;;;;23.43;29.70;99368.78;5044090;28;20321;-70
2022/06/16 11:19:48;;;;;;;13.15;2.30;;;;;;;23.01;30.25;99380.75;5042190;28;20053;-71
2022/06/16 11:22:24;;;;;;;19.83;2.03;;;;;;;22.78;31.34;99376.75;5041590;28;20306;-71
2022/06/16 11:24:55;;;;;;;37.60;3.57;;;;;;;22.81;32.89;99369.66;5041546;28;20056;-72
2022/06/16 11:27:21;;;;;;;20.25;2.75;;;;;;;23.18;32.69;99363.56;5045860;28;20911;-74
2022/06/16 11:29:47;;;;;;;21.90;3.13;;;;;;;24.98;29.01;99374.94;5036743;28;20219;-72
2022/06/16 11:32:22;;;;;;;9.63;2.30;;;;;;;26.29;27.11;99362.75;5025269;28;20045;-70
2022/06/16 11:34:48;;;;;;;17.95;3.03;;;;;;;28.26;24.94;99364.59;5040362;28;20967;-76
2022/06/16 11:37:33;;;;;;;22.42;3.78;;;;;;;29.60;22.46;99365.84;5044404;28;20225;-75
2022/06/16 11:40:07;;;;;;;14.23;2.40;;;;;;;29.58;22.72;99365.44;5037993;28;20041;-71
2022/06/16 11:43:06;;;;;;;11.48;2.63;;;;;;;27.85;24.44;99362.25;5037090;28;20049;-75
2022/06/16 11:45:39;;;;;;;34.35;3.15;;;;;;;28.55;24.07;99377.72;5033094;28;20053;-76
2022/06/16 11:48:20;;;;;;;25.42;2.67;;;;;;;29.61;22.99;99367.44;5039259;28;20045;-76
2022/06/16 11:50:54;;;;;;;10.55;3.17;;;;;;;30.19;22.06;99368.91;5040296;28;20575;-75
2022/06/16 11:53:40;;;;;;;10.13;2.88;;;;;;;30.71;21.08;99350.97;5046395;28;20075;-76
2022/06/16 11:56:13;;;;;;;10.52;2.40;;;;;;;31.04;20.62;99361.78;5042669;28;20483;-76
2022/06/16 11:58:51;;;;;;;16.17;2.70;;;;;;;30.51;20.81;99356.44;5016060;28;20111;-71
2022/06/16 12:01:22;;;;;;;6.57;2.30;;;;;;;30.86;20.19;99367.69;5045108;28;20056;-70
2022/06/16 12:04:04;;;;;;;8.57;2.47;;;;;;;30.07;20.66;99354.13;5042781;28;20831;-75
2022/06/16 12:06:48;;;;;;;21.42;2.97;;;;;;;30.56;20.76;99358.78;5045956;28;20135;-75